createdAt,value
2022-11-20T00:02:36.215Z,26.10
2022-11-20T00:05:42.112Z,26.00
2022-11-20T00:08:44.607Z,26.00
2022-11-20T00:11:48.124Z,26.20
2022-11-20T00:14:50.082Z,26.00
2022-11-20T00:17:52.275Z,26.10
2022-11-20T00:20:54.190Z,26.10
2022-11-20T00:23:58.023Z,26.30
2022-11-20T00:26:59.784Z,26.30
2022-11-20T00:30:02.403Z,26.20
2022-11-20T00:33:04.281Z,26.20
2022-11-20T00:36:15.200Z,26.30
2022-11-20T00:39:17.017Z,26.40
2022-11-20T00:42:19.574Z,26.40
2022-11-20T00:45:21.461Z,26.10
2022-11-20T00:48:23.544Z,26.10
2022-11-20T00:51:26.979Z,25.40
2022-11-20T00:54:29.440Z,25.50
2022-11-20T00:57:32.254Z,25.70
2022-11-20T01:00:34.419Z,25.90
2022-11-20T01:03:38.592Z,25.80
2022-11-20T01:06:41.267Z,25.80
2022-11-20T01:09:43.174Z,25.70
2022-11-20T01:13:05.197Z,25.10
2022-11-20T01:16:10.096Z,25.00
2022-11-20T01:19:17.643Z,25.60
2022-11-20T01:22:20.069Z,25.30
2022-11-20T01:25:22.161Z,25.40
2022-11-20T01:28:23.965Z,25.60
2022-11-20T01:31:28.922Z,25.40
2022-11-20T01:34:30.809Z,25.60
2022-11-20T01:37:32.873Z,25.60
2022-11-20T01:40:34.652Z,25.70
2022-11-20T01:43:37.604Z,25.80
2022-11-20T01:46:44.838Z,25.80
2022-11-20T01:49:57.824Z,25.80
2022-11-20T01:53:03.609Z,25.70
2022-11-20T01:56:10.117Z,25.70
2022-11-20T01:59:16.597Z,25.80
2022-11-20T02:02:18.771Z,25.60
2022-11-20T02:05:29.598Z,25.00
2022-11-20T02:08:32.237Z,25.20
2022-11-20T02:11:34.083Z,25.10
2022-11-20T02:14:36.166Z,24.40
2022-11-20T02:17:38.616Z,24.80
2022-11-20T02:20:44.762Z,25.10
2022-11-20T02:24:04.825Z,25.20
2022-11-20T02:27:17.719Z,25.20
2022-11-20T02:30:19.995Z,24.70
2022-11-20T02:33:22.111Z,24.80
2022-11-20T02:36:27.499Z,24.70
2022-11-20T02:39:29.796Z,24.70
2022-11-20T02:42:31.628Z,25.00
2022-11-20T02:45:33.839Z,25.20
2022-11-20T02:48:35.872Z,25.60
2022-11-20T02:51:38.383Z,25.80
2022-11-20T02:54:40.195Z,25.50
2022-11-20T02:57:42.251Z,25.70
2022-11-20T03:00:44.106Z,25.90
2022-11-20T03:03:46.255Z,26.00
2022-11-20T03:06:48.095Z,26.10
2022-11-20T03:09:50.392Z,26.10
2022-11-20T03:12:56.535Z,26.30
2022-11-20T03:15:58.673Z,26.20
2022-11-20T03:19:01.159Z,26.40
2022-11-20T03:22:03.258Z,26.30
2022-11-20T03:25:05.513Z,26.30
2022-11-20T03:28:07.679Z,26.30
2022-11-20T03:31:12.201Z,26.10
2022-11-20T03:34:14.548Z,26.30
2022-11-20T03:37:16.413Z,26.10
2022-11-20T03:40:18.620Z,26.00
2022-11-20T03:43:20.396Z,25.90
2022-11-20T03:46:23.154Z,26.00
2022-11-20T03:49:24.950Z,25.80
2022-11-20T03:52:27.038Z,25.90
2022-11-20T03:55:28.829Z,25.90
2022-11-20T03:58:30.905Z,25.70
2022-11-20T04:01:35.773Z,26.00
2022-11-20T04:04:37.937Z,26.10
2022-11-20T04:07:39.827Z,26.00
2022-11-20T04:10:42.007Z,26.00
2022-11-20T04:13:48.131Z,25.60
2022-11-20T04:16:50.337Z,24.80
2022-11-20T04:19:52.109Z,25.20
2022-11-20T04:22:55.539Z,24.80
2022-11-20T04:26:03.265Z,25.60
2022-11-20T04:29:05.624Z,25.10
2022-11-20T04:32:07.558Z,25.60
2022-11-20T04:35:09.873Z,25.60
2022-11-20T04:38:11.691Z,25.80
2022-11-20T04:41:17.953Z,25.80
2022-11-20T04:44:19.753Z,26.00
2022-11-20T04:47:22.237Z,26.10
2022-11-20T04:50:24.059Z,26.00
2022-11-20T04:53:26.197Z,26.00
2022-11-20T04:56:28.377Z,26.00
2022-11-20T04:59:30.461Z,26.20
2022-11-20T05:02:33.025Z,26.20
2022-11-20T05:05:35.986Z,26.10
2022-11-20T05:08:38.021Z,26.00
2022-11-20T05:11:40.155Z,26.20
2022-11-20T05:14:41.998Z,26.10
2022-11-20T05:17:51.289Z,25.80
2022-11-20T05:20:57.382Z,25.90
2022-11-20T05:23:59.504Z,25.90
2022-11-20T05:27:01.353Z,25.90
2022-11-20T05:30:07.687Z,25.70
2022-11-20T05:33:09.538Z,25.90
2022-11-20T05:36:14.121Z,26.10
2022-11-20T05:39:16.037Z,26.10
2022-11-20T05:42:33.489Z,26.20
2022-11-20T05:45:35.341Z,25.90
2022-11-20T05:48:38.846Z,26.10
2022-11-20T05:51:40.634Z,26.00
2022-11-20T05:54:42.871Z,26.00
2022-11-20T05:57:44.666Z,26.10
2022-11-20T06:00:46.883Z,25.70
2022-11-20T06:03:51.349Z,25.80
2022-11-20T06:06:53.490Z,25.80
2022-11-20T06:09:55.359Z,25.80
2022-11-20T06:12:59.305Z,25.60
2022-11-20T06:16:01.283Z,25.40
2022-11-20T06:19:03.406Z,25.50
2022-11-20T06:22:05.182Z,25.30
2022-11-20T06:25:07.562Z,25.60
2022-11-20T06:28:12.080Z,25.40
2022-11-20T06:31:18.037Z,25.50
2022-11-20T06:34:20.249Z,25.10
2022-11-20T06:37:22.341Z,25.00
2022-11-20T06:40:24.149Z,25.40
2022-11-20T06:43:26.796Z,25.50
2022-11-20T06:46:28.592Z,25.50
2022-11-20T06:49:30.766Z,25.80
2022-11-20T06:52:32.587Z,25.50
2022-11-20T06:55:34.745Z,25.20
2022-11-20T06:58:37.869Z,25.50
2022-11-20T07:01:40.019Z,25.50
2022-11-20T07:04:41.894Z,25.40
2022-11-20T07:07:44.010Z,25.40
2022-11-20T07:10:45.947Z,25.40
2022-11-20T07:13:48.041Z,25.40
2022-11-20T07:16:49.957Z,25.30
2022-11-20T07:19:52.163Z,25.80
2022-11-20T07:22:58.161Z,25.80
2022-11-20T07:26:07.361Z,25.30
2022-11-20T07:29:09.174Z,25.00
2022-11-20T07:32:11.553Z,24.90
2022-11-20T07:35:13.487Z,25.20
2022-11-20T07:38:15.613Z,25.10
2022-11-20T07:41:17.402Z,25.30
2022-11-20T07:44:19.461Z,25.30
2022-11-20T07:47:21.871Z,25.60
2022-11-20T07:50:24.009Z,25.40
2022-11-20T07:53:25.970Z,25.60
2022-11-20T07:56:28.077Z,26.00
2022-11-20T07:59:29.846Z,26.00
2022-11-20T08:02:31.930Z,25.90
2022-11-20T08:05:34.314Z,26.00
2022-11-20T08:08:41.374Z,25.90
2022-11-20T08:12:02.996Z,26.00
2022-11-20T08:15:12.518Z,26.10
2022-11-20T08:18:30.656Z,26.20
2022-11-20T08:21:38.195Z,26.40
2022-11-20T08:24:41.628Z,26.40
2022-11-20T08:28:22.482Z,26.10
2022-11-20T08:36:09.912Z,26.60
2022-11-20T08:39:30.094Z,26.00
2022-11-20T08:42:50.368Z,26.20
2022-11-20T08:45:52.495Z,25.90
2022-11-20T08:49:04.669Z,26.10
2022-11-20T08:52:09.366Z,26.10
2022-11-20T08:55:11.705Z,25.80
2022-11-20T08:58:16.660Z,25.80
2022-11-20T09:01:19.471Z,26.00
2022-11-20T09:04:21.677Z,26.20
2022-11-20T09:07:23.529Z,26.30
2022-11-20T09:10:29.028Z,26.50
2022-11-20T09:13:31.636Z,26.30
2022-11-20T09:16:39.437Z,26.20
2022-11-20T09:19:42.267Z,26.50
2022-11-20T09:22:44.906Z,26.40
2022-11-20T09:25:46.779Z,26.20
2022-11-20T09:28:50.277Z,26.60
2022-11-20T09:31:54.725Z,26.90
2022-11-20T09:34:56.842Z,26.60
2022-11-20T09:37:58.767Z,26.80
2022-11-20T09:41:06.108Z,27.00
2022-11-20T09:44:48.701Z,26.60
2022-11-20T09:48:00.565Z,26.80
2022-11-20T09:51:11.238Z,27.00
2022-11-20T09:54:16.082Z,26.70
2022-11-20T09:57:24.717Z,27.30
2022-11-20T10:00:28.921Z,27.30
2022-11-20T10:03:57.003Z,27.40
2022-11-20T10:07:32.567Z,27.00
2022-11-20T10:10:44.299Z,26.80
2022-11-20T10:14:01.841Z,27.40
2022-11-20T10:17:16.542Z,27.50
2022-11-20T10:21:19.533Z,27.70
2022-11-20T10:24:44.428Z,27.60
2022-11-20T10:28:05.374Z,27.60
2022-11-20T10:31:15.674Z,27.60
2022-11-20T10:34:31.290Z,27.70
2022-11-20T10:37:38.742Z,27.80
2022-11-20T10:40:46.751Z,27.70
2022-11-20T10:44:46.332Z,27.60
2022-11-20T10:47:50.535Z,27.40
2022-11-20T10:51:20.322Z,27.40
2022-11-20T10:54:51.773Z,27.30
2022-11-20T10:57:58.817Z,26.60
2022-11-20T11:01:17.028Z,26.90
2022-11-20T11:04:36.830Z,26.70
2022-11-20T11:07:40.915Z,26.70
2022-11-20T11:10:59.468Z,27.00
2022-11-20T11:14:15.558Z,26.90
2022-11-20T11:17:24.951Z,27.20
2022-11-20T11:20:27.263Z,27.20
2022-11-20T11:23:35.120Z,27.30
2022-11-20T11:26:38.011Z,27.20
2022-11-20T11:29:47.035Z,26.90
2022-11-20T11:32:49.501Z,26.40
2022-11-20T11:35:54.807Z,26.60
2022-11-20T11:38:56.941Z,27.00
2022-11-20T11:42:01.180Z,26.90
2022-11-20T11:45:10.233Z,26.90
2022-11-20T11:48:12.131Z,26.70
2022-11-20T11:51:23.926Z,27.20
2022-11-20T11:54:39.602Z,27.10
2022-11-20T11:58:17.930Z,27.20
2022-11-20T12:01:50.097Z,27.20
2022-11-20T12:05:24.731Z,27.20
2022-11-20T12:08:54.128Z,27.30
2022-11-20T12:12:07.284Z,27.10
2022-11-20T12:15:15.324Z,27.40
2022-11-20T12:18:21.278Z,27.60
2022-11-20T12:21:37.279Z,27.70
2022-11-20T12:24:58.491Z,27.50
2022-11-20T12:28:30.473Z,27.40
2022-11-20T12:32:01.827Z,26.60
2022-11-20T12:35:19.813Z,26.50
2022-11-20T12:39:13.238Z,26.90
2022-11-20T12:42:41.194Z,27.10
2022-11-20T12:45:53.542Z,27.20
2022-11-20T12:49:05.408Z,27.20
2022-11-20T12:52:17.100Z,27.50
2022-11-20T12:55:45.000Z,27.60
2022-11-20T12:58:54.677Z,27.60
2022-11-20T13:02:27.261Z,27.60
2022-11-20T13:05:38.891Z,27.30
2022-11-20T13:08:44.107Z,27.30
2022-11-20T13:11:59.851Z,27.50
2022-11-20T13:15:22.758Z,27.30
2022-11-20T13:18:25.365Z,27.60
2022-11-20T13:21:39.759Z,27.80
2022-11-20T13:24:51.885Z,27.60
2022-11-20T13:27:55.174Z,27.80
2022-11-20T13:30:59.814Z,27.80
2022-11-20T13:34:05.603Z,27.90
2022-11-20T13:37:28.076Z,27.90
2022-11-20T13:40:29.991Z,28.00
2022-11-20T13:43:43.000Z,27.90
2022-11-20T13:46:48.483Z,27.90
2022-11-20T13:49:52.130Z,27.90
2022-11-20T13:53:15.689Z,27.90
2022-11-20T13:56:41.760Z,28.00
2022-11-20T14:00:05.883Z,27.90
2022-11-20T14:03:13.221Z,27.90
2022-11-20T14:06:30.610Z,27.90
2022-11-20T14:09:35.013Z,27.80
2022-11-20T14:12:37.832Z,27.90
2022-11-20T14:15:45.439Z,27.90
2022-11-20T14:18:48.670Z,27.90
2022-11-20T14:22:07.117Z,27.90
2022-11-20T14:25:18.159Z,27.90
2022-11-20T14:28:52.353Z,27.80
2022-11-20T14:32:00.362Z,27.80
2022-11-20T14:35:13.434Z,27.90
2022-11-20T14:38:36.575Z,27.80
2022-11-20T14:41:41.034Z,27.80
2022-11-20T14:44:44.566Z,27.80
2022-11-20T14:47:49.765Z,27.70
2022-11-20T14:50:56.596Z,27.70
2022-11-20T14:54:18.027Z,27.80
2022-11-20T14:57:31.460Z,27.80
2022-11-20T15:00:36.568Z,27.70
2022-11-20T15:03:40.409Z,27.70
2022-11-20T15:06:52.906Z,27.70
2022-11-20T15:10:08.902Z,27.70
2022-11-20T15:13:24.858Z,27.80
2022-11-20T15:16:28.785Z,27.80
2022-11-20T15:19:30.996Z,27.80
2022-11-20T15:22:32.806Z,27.80
2022-11-20T15:25:35.073Z,27.80
2022-11-20T15:28:44.682Z,27.70
2022-11-20T15:31:47.018Z,27.70
2022-11-20T15:34:48.811Z,27.70
2022-11-20T15:37:50.850Z,27.70
2022-11-20T15:40:52.755Z,27.70
2022-11-20T15:43:54.822Z,27.60
2022-11-20T15:46:57.155Z,27.70
2022-11-20T15:49:59.606Z,27.70
2022-11-20T15:53:01.428Z,27.60
2022-11-20T15:56:04.328Z,27.60
2022-11-20T15:59:06.190Z,27.50
2022-11-20T16:02:19.377Z,27.40
2022-11-20T16:05:24.042Z,27.40
2022-11-20T16:08:26.244Z,27.30
2022-11-20T16:11:28.199Z,27.30
2022-11-20T16:14:53.284Z,27.20
2022-11-20T16:21:31.643Z,27.20
2022-11-20T16:24:33.508Z,27.20
2022-11-20T16:27:35.637Z,27.30
2022-11-20T16:30:37.993Z,27.20
2022-11-20T16:33:41.051Z,27.10
2022-11-20T16:36:45.835Z,27.20
2022-11-20T16:39:48.193Z,27.20
2022-11-20T16:42:51.043Z,27.30
2022-11-20T16:45:55.200Z,27.40
2022-11-20T16:49:07.699Z,27.30
2022-11-20T16:52:09.758Z,27.30
2022-11-20T16:55:11.983Z,27.30
2022-11-20T16:58:14.966Z,27.30
2022-11-20T17:01:21.436Z,27.10
2022-11-20T17:04:25.866Z,27.00
2022-11-20T17:07:27.831Z,27.00
2022-11-20T17:10:30.140Z,27.00
2022-11-20T17:13:35.931Z,27.00
2022-11-20T17:16:41.827Z,27.00
2022-11-20T17:19:43.631Z,27.00
2022-11-20T17:22:45.954Z,27.00
2022-11-20T17:25:48.486Z,27.10
2022-11-20T17:29:11.738Z,27.10
2022-11-20T17:32:17.097Z,27.10
2022-11-20T17:35:22.197Z,27.10
2022-11-20T17:38:28.727Z,27.10
2022-11-20T17:41:33.672Z,27.10
2022-11-20T17:44:42.640Z,27.10
2022-11-20T17:47:47.472Z,27.10
2022-11-20T17:50:51.861Z,27.10
2022-11-20T17:54:10.380Z,27.00
2022-11-20T17:57:34.517Z,27.00
2022-11-20T18:00:37.739Z,26.90
2022-11-20T18:03:39.624Z,26.90
2022-11-20T18:06:42.787Z,26.90
2022-11-20T18:09:44.606Z,26.80
2022-11-20T18:12:46.673Z,26.90
2022-11-20T18:15:48.486Z,26.90
2022-11-20T18:18:53.259Z,27.00
2022-11-20T18:21:55.201Z,26.90
2022-11-20T18:24:57.360Z,26.90
2022-11-20T18:27:59.150Z,26.90
2022-11-20T18:31:08.453Z,26.90
2022-11-20T18:34:12.282Z,26.90
2022-11-20T18:37:16.275Z,26.90
2022-11-20T18:40:18.086Z,26.90
2022-11-20T18:43:39.240Z,26.90
2022-11-20T18:46:42.983Z,27.00
2022-11-20T18:49:51.123Z,26.90
2022-11-20T18:52:54.423Z,26.70
2022-11-20T18:55:56.534Z,26.80
2022-11-20T18:59:03.186Z,26.80
2022-11-20T19:02:05.365Z,26.80
2022-11-20T19:05:07.439Z,26.80
2022-11-20T19:08:09.531Z,26.70
2022-11-20T19:11:12.788Z,26.80
2022-11-20T19:14:15.555Z,26.70
2022-11-20T19:17:17.690Z,26.80
2022-11-20T19:20:20.599Z,26.80
2022-11-20T19:23:22.830Z,26.90
2022-11-20T19:26:25.475Z,26.90
2022-11-20T19:29:28.674Z,27.00
2022-11-20T19:32:30.931Z,27.00
2022-11-20T19:35:32.943Z,27.00
2022-11-20T19:38:35.538Z,26.80
2022-11-20T19:41:39.165Z,26.70
2022-11-20T19:44:43.679Z,26.60
2022-11-20T19:48:06.749Z,26.70
2022-11-20T19:51:14.794Z,26.60
2022-11-20T19:54:17.492Z,26.50
2022-11-20T19:57:22.646Z,26.50
2022-11-20T20:00:29.614Z,26.50
2022-11-20T20:03:33.504Z,26.50
2022-11-20T20:06:38.928Z,26.30
2022-11-20T20:09:41.661Z,26.40
2022-11-20T20:12:43.840Z,26.40
2022-11-20T20:15:49.078Z,26.50
2022-11-20T20:18:55.191Z,26.30
2022-11-20T20:21:57.469Z,26.20
2022-11-20T20:24:59.265Z,26.30
2022-11-20T20:28:01.350Z,26.30
2022-11-20T20:31:09.016Z,26.20
2022-11-20T20:34:11.550Z,26.20
2022-11-20T20:37:13.376Z,26.20
2022-11-20T20:40:15.782Z,25.80
2022-11-20T20:43:19.185Z,26.00
2022-11-20T20:46:21.734Z,26.00
2022-11-20T20:49:23.835Z,25.90
2022-11-20T20:52:28.869Z,25.80
2022-11-20T20:55:30.760Z,25.60
2022-11-20T20:58:33.101Z,25.50
2022-11-20T21:01:35.078Z,25.40
2022-11-20T21:04:37.405Z,25.40
2022-11-20T21:07:59.174Z,25.40
2022-11-20T21:11:07.236Z,25.40
2022-11-20T21:14:09.358Z,25.40
2022-11-20T21:17:15.098Z,25.40
2022-11-20T21:20:35.938Z,25.30
2022-11-20T21:23:39.411Z,25.20
2022-11-20T21:26:41.210Z,25.20
2022-11-20T21:29:43.600Z,25.20
2022-11-20T21:32:45.793Z,25.10
2022-11-20T21:35:47.975Z,25.10
2022-11-20T21:38:52.841Z,25.00
2022-11-20T21:41:57.389Z,24.90
2022-11-20T21:44:59.196Z,24.90
2022-11-20T21:48:01.263Z,24.80
2022-11-20T21:51:14.776Z,24.80
2022-11-20T21:54:17.664Z,24.80
2022-11-20T21:57:20.537Z,24.80
2022-11-20T22:00:23.973Z,24.60
2022-11-20T22:03:25.858Z,24.60
2022-11-20T22:06:35.743Z,24.60
2022-11-20T22:09:37.518Z,24.60
2022-11-20T22:12:39.625Z,24.70
2022-11-20T22:15:59.842Z,24.70
2022-11-20T22:19:04.204Z,24.70
2022-11-20T22:22:06.025Z,24.70
2022-11-20T22:25:08.690Z,24.70
2022-11-20T22:28:10.698Z,24.80
2022-11-20T22:31:12.780Z,24.80
2022-11-20T22:34:14.774Z,24.90
2022-11-20T22:37:16.843Z,24.90
2022-11-20T22:40:20.409Z,24.80
2022-11-20T22:43:22.556Z,24.70
2022-11-20T22:46:25.641Z,24.60
2022-11-20T22:49:27.976Z,24.60
2022-11-20T22:52:29.842Z,24.70
2022-11-20T22:55:34.063Z,24.60
2022-11-20T22:58:38.796Z,24.60
2022-11-20T23:01:40.829Z,24.60
2022-11-20T23:04:42.611Z,24.60
2022-11-20T23:07:44.840Z,24.50
2022-11-20T23:10:46.638Z,24.40
2022-11-20T23:14:01.507Z,24.50
2022-11-20T23:17:03.314Z,24.50
2022-11-20T23:20:05.932Z,24.60
2022-11-20T23:23:07.700Z,24.60
2022-11-20T23:26:14.293Z,24.60
2022-11-20T23:29:16.207Z,24.60
2022-11-20T23:32:18.310Z,24.60
2022-11-20T23:35:20.265Z,24.60
2022-11-20T23:38:22.565Z,24.60
2022-11-20T23:41:24.501Z,24.50
2022-11-20T23:44:27.966Z,24.40
2022-11-20T23:47:29.950Z,24.30
2022-11-20T23:50:32.028Z,24.30
2022-11-20T23:53:34.915Z,24.40
2022-11-20T23:56:37.014Z,24.40
2022-11-20T23:59:38.826Z,24.50
